createdAt,value
2017-06-02T00:00:40.953Z,0
2017-06-02T00:01:41.654Z,0
2017-06-02T00:02:42.610Z,0
2017-06-02T00:03:43.310Z,0
2017-06-02T00:04:44.013Z,0
2017-06-02T00:05:44.716Z,0
2017-06-02T00:06:45.419Z,0
2017-06-02T00:07:46.118Z,0
2017-06-02T00:08:46.821Z,0
2017-06-02T00:09:47.522Z,0
2017-06-02T00:10:48.222Z,0
2017-06-02T00:11:48.939Z,0
2017-06-02T00:12:49.893Z,0
2017-06-02T00:13:50.596Z,0
2017-06-02T00:14:51.301Z,0
2017-06-02T00:15:52.001Z,0
2017-06-02T00:16:52.705Z,0
2017-06-02T00:17:53.657Z,0
2017-06-02T00:18:54.352Z,0
2017-06-02T00:19:55.053Z,0
2017-06-02T00:20:55.755Z,0
2017-06-02T00:21:56.455Z,0
2017-06-02T00:22:57.358Z,0
2017-06-02T00:23:58.069Z,0
2017-06-02T00:24:58.771Z,0
2017-06-02T00:25:59.475Z,0
2017-06-02T00:27:00.181Z,0
2017-06-02T00:28:01.137Z,0
2017-06-02T00:29:01.838Z,0
2017-06-02T00:30:02.542Z,0
2017-06-02T00:31:03.245Z,0
2017-06-02T00:32:03.947Z,0
2017-06-02T00:33:04.894Z,0
2017-06-02T00:34:05.596Z,0
2017-06-02T00:35:06.299Z,0
2017-06-02T00:36:07.002Z,0
2017-06-02T00:37:07.704Z,0
2017-06-02T00:38:08.652Z,0
2017-06-02T00:39:09.348Z,0
2017-06-02T00:40:10.046Z,0
2017-06-02T00:41:10.750Z,0
2017-06-02T00:42:11.450Z,0
2017-06-02T00:43:12.356Z,0
2017-06-02T00:44:13.057Z,0
2017-06-02T00:45:13.756Z,0
2017-06-02T00:46:14.460Z,0
2017-06-02T00:47:15.157Z,0
2017-06-02T00:48:16.107Z,0
2017-06-02T00:49:16.806Z,0
2017-06-02T00:50:17.507Z,0
2017-06-02T00:51:18.208Z,0
2017-06-02T00:52:18.909Z,0
2017-06-02T00:53:19.861Z,0
2017-06-02T00:54:20.560Z,0
2017-06-02T00:55:21.263Z,0
2017-06-02T00:56:21.967Z,0
2017-06-02T00:57:22.672Z,0
2017-06-02T00:58:23.570Z,0
2017-06-02T00:59:24.270Z,0
2017-06-02T01:00:24.969Z,0
2017-06-02T01:01:25.671Z,0
2017-06-02T01:02:26.370Z,0
2017-06-02T01:03:27.320Z,0
2017-06-02T01:04:28.021Z,0
2017-06-02T01:05:28.719Z,0
2017-06-02T01:06:29.419Z,0
2017-06-02T01:07:30.124Z,0
2017-06-02T01:08:31.078Z,0
2017-06-02T01:09:31.782Z,0
2017-06-02T01:10:32.483Z,0
2017-06-02T01:11:33.185Z,0
2017-06-02T01:12:33.887Z,0
2017-06-02T01:13:34.791Z,0
2017-06-02T01:14:35.489Z,0
2017-06-02T01:15:36.190Z,0
2017-06-02T01:16:36.891Z,0
2017-06-02T01:17:37.597Z,0
2017-06-02T01:18:38.500Z,0
2017-06-02T01:19:39.199Z,0
2017-06-02T01:20:39.901Z,0
2017-06-02T01:21:40.611Z,0
2017-06-02T01:22:41.310Z,0
2017-06-02T01:23:42.262Z,0
2017-06-02T01:24:42.964Z,0
2017-06-02T01:25:43.663Z,0
2017-06-02T01:26:44.365Z,0
2017-06-02T01:27:45.062Z,0
2017-06-02T01:28:45.966Z,0
2017-06-02T01:29:46.667Z,0
2017-06-02T01:30:47.368Z,0
2017-06-02T01:31:48.073Z,0
2017-06-02T01:32:48.771Z,0
2017-06-02T01:33:49.673Z,0
2017-06-02T01:34:50.375Z,0
2017-06-02T01:35:51.082Z,0
2017-06-02T01:36:51.782Z,0
2017-06-02T01:37:52.489Z,0
2017-06-02T01:38:53.488Z,0
2017-06-02T01:39:54.191Z,0
2017-06-02T01:40:54.891Z,0
2017-06-02T01:41:55.592Z,0
2017-06-02T01:42:56.294Z,0
2017-06-02T01:43:57.246Z,0
2017-06-02T01:44:57.946Z,0
2017-06-02T01:45:58.647Z,0
2017-06-02T01:46:59.348Z,0
2017-06-02T01:48:00.043Z,0
2017-06-02T01:49:00.993Z,0
2017-06-02T01:50:01.693Z,0
2017-06-02T01:51:02.398Z,0
2017-06-02T01:52:03.098Z,0
2017-06-02T01:53:03.801Z,0
2017-06-02T01:54:04.755Z,0
2017-06-02T01:55:05.452Z,0
2017-06-02T01:56:06.153Z,0
2017-06-02T01:57:06.855Z,0
2017-06-02T01:58:07.559Z,0
2017-06-02T01:59:08.461Z,0
2017-06-02T02:00:09.162Z,0
2017-06-02T02:01:09.864Z,0
2017-06-02T02:02:10.567Z,0
2017-06-02T02:03:11.266Z,0
2017-06-02T02:04:12.220Z,0
2017-06-02T02:05:12.920Z,0
2017-06-02T02:06:13.618Z,0
2017-06-02T02:07:14.318Z,0
2017-06-02T02:08:15.018Z,0
2017-06-02T02:09:15.917Z,0
2017-06-02T02:10:16.622Z,0
2017-06-02T02:11:17.323Z,0
2017-06-02T02:12:18.026Z,0
2017-06-02T02:13:18.732Z,0
2017-06-02T02:14:19.433Z,0
2017-06-02T02:15:20.145Z,0
2017-06-02T02:16:20.845Z,0
2017-06-02T02:17:21.544Z,0
2017-06-02T02:18:22.247Z,0
2017-06-02T02:19:22.950Z,0
2017-06-02T02:20:23.660Z,0
2017-06-02T02:21:24.361Z,0
2017-06-02T02:22:25.063Z,0
2017-06-02T02:23:25.763Z,0
2017-06-02T02:24:26.716Z,0
2017-06-02T02:25:27.417Z,0
2017-06-02T02:26:28.121Z,0
2017-06-02T02:27:28.821Z,0
2017-06-02T02:28:29.523Z,0
2017-06-02T02:29:30.473Z,0
2017-06-02T02:30:31.177Z,0
2017-06-02T02:31:31.894Z,0
2017-06-02T02:32:32.591Z,0
2017-06-02T02:33:33.292Z,0
2017-06-02T02:34:34.194Z,0
2017-06-02T02:35:34.891Z,0
2017-06-02T02:36:35.590Z,0
2017-06-02T02:37:36.289Z,0
2017-06-02T02:38:36.992Z,0
2017-06-02T02:39:37.895Z,0
2017-06-02T02:40:38.595Z,0
2017-06-02T02:41:39.302Z,0
2017-06-02T02:42:40.005Z,0
2017-06-02T02:43:40.705Z,0
2017-06-02T02:44:41.655Z,4
2017-06-02T02:45:42.356Z,4
2017-06-02T02:46:43.054Z,0
2017-06-02T02:47:43.759Z,4
2017-06-02T02:48:44.458Z,4
2017-06-02T02:49:45.410Z,0
2017-06-02T02:50:46.109Z,4
2017-06-02T02:51:46.807Z,4
2017-06-02T02:52:47.506Z,4
2017-06-02T02:53:48.211Z,8
2017-06-02T02:54:49.112Z,8
2017-06-02T02:55:49.807Z,8
2017-06-02T02:56:50.511Z,12
2017-06-02T02:57:51.210Z,12
2017-06-02T02:58:51.926Z,12
2017-06-02T02:59:52.876Z,12
2017-06-02T03:00:53.577Z,16
2017-06-02T03:01:54.279Z,16
2017-06-02T03:02:54.977Z,20
2017-06-02T03:03:55.680Z,24
2017-06-02T03:04:56.634Z,24
2017-06-02T03:05:57.334Z,32
2017-06-02T03:06:58.035Z,36
2017-06-02T03:07:58.735Z,40
2017-06-02T03:08:59.433Z,44
2017-06-02T03:10:00.335Z,52
2017-06-02T03:11:01.038Z,60
2017-06-02T03:12:01.739Z,68
2017-06-02T03:13:02.449Z,72
2017-06-02T03:14:03.157Z,80
2017-06-02T03:15:04.104Z,88
2017-06-02T03:16:04.807Z,96
2017-06-02T03:17:05.523Z,108
2017-06-02T03:18:06.225Z,116
2017-06-02T03:19:06.928Z,132
2017-06-02T03:20:07.883Z,140
2017-06-02T03:21:08.587Z,152
2017-06-02T03:22:09.285Z,164
2017-06-02T03:23:09.985Z,172
2017-06-02T03:24:10.687Z,184
2017-06-02T03:25:11.389Z,196
2017-06-02T03:26:12.091Z,212
2017-06-02T03:27:12.792Z,228
2017-06-02T03:28:13.493Z,244
2017-06-02T03:29:14.193Z,260
2017-06-02T03:30:15.150Z,272
2017-06-02T03:31:15.852Z,288
2017-06-02T03:32:16.556Z,304
2017-06-02T03:33:17.259Z,320
2017-06-02T03:34:17.961Z,336
2017-06-02T03:35:18.911Z,352
2017-06-02T03:36:19.619Z,368
2017-06-02T03:37:20.322Z,384
2017-06-02T03:38:21.024Z,404
2017-06-02T03:39:21.731Z,424
2017-06-02T03:40:22.687Z,440
2017-06-02T03:41:23.390Z,456
2017-06-02T03:42:24.094Z,476
2017-06-02T03:43:24.797Z,488
2017-06-02T03:44:25.497Z,512
2017-06-02T03:45:26.400Z,524
2017-06-02T03:46:27.101Z,544
2017-06-02T03:47:27.803Z,560
2017-06-02T03:48:28.503Z,576
2017-06-02T03:49:29.208Z,592
2017-06-02T03:50:30.110Z,604
2017-06-02T03:51:30.810Z,620
2017-06-02T03:52:31.512Z,636
2017-06-02T03:53:32.212Z,652
2017-06-02T03:54:32.915Z,664
2017-06-02T03:55:33.873Z,680
2017-06-02T03:56:34.578Z,692
2017-06-02T03:57:35.285Z,712
2017-06-02T03:58:35.986Z,728
2017-06-02T03:59:36.686Z,740
2017-06-02T04:00:37.587Z,756
2017-06-02T04:01:38.285Z,776
2017-06-02T04:02:38.988Z,792
2017-06-02T04:03:39.691Z,808
2017-06-02T04:04:40.392Z,828
2017-06-02T04:05:41.293Z,844
2017-06-02T04:06:41.998Z,864
2017-06-02T04:07:42.697Z,884
2017-06-02T04:08:43.399Z,884
2017-06-02T04:09:44.110Z,900
2017-06-02T04:10:45.012Z,912
2017-06-02T04:11:45.715Z,924
2017-06-02T04:12:46.419Z,944
2017-06-02T04:13:47.119Z,964
2017-06-02T04:14:47.819Z,988
2017-06-02T04:15:48.773Z,1008
2017-06-02T04:16:49.479Z,1052
2017-06-02T04:17:50.179Z,1064
2017-06-02T04:18:50.882Z,1060
2017-06-02T04:19:51.591Z,1084
2017-06-02T04:20:52.553Z,1144
2017-06-02T04:21:53.254Z,1180
2017-06-02T04:22:53.965Z,1208
2017-06-02T04:23:54.668Z,1240
2017-06-02T04:24:55.369Z,1264
2017-06-02T04:25:56.274Z,1280
2017-06-02T04:26:56.976Z,1236
2017-06-02T04:27:57.682Z,1276
2017-06-02T04:28:58.394Z,1304
2017-06-02T04:29:59.097Z,1304
2017-06-02T04:31:00.051Z,1352
2017-06-02T04:32:00.753Z,1412
2017-06-02T04:33:01.455Z,1432
2017-06-02T04:34:02.157Z,1448
2017-06-02T04:35:02.860Z,1464
2017-06-02T04:36:03.770Z,1492
2017-06-02T04:37:04.470Z,1504
2017-06-02T04:38:05.184Z,1516
2017-06-02T04:39:05.885Z,1528
2017-06-02T04:40:06.587Z,1552
2017-06-02T04:41:07.538Z,1548
2017-06-02T04:42:08.245Z,1548
2017-06-02T04:43:08.945Z,1476
2017-06-02T04:44:09.646Z,1488
2017-06-02T04:45:10.349Z,1480
2017-06-02T04:46:11.253Z,1492
2017-06-02T04:47:11.961Z,1516
2017-06-02T04:48:12.664Z,1552
2017-06-02T04:49:13.369Z,1652
2017-06-02T04:50:14.075Z,1728
2017-06-02T04:51:15.028Z,1708
2017-06-02T04:52:15.733Z,1760
2017-06-02T04:53:16.441Z,1768
2017-06-02T04:54:17.144Z,1692
2017-06-02T04:55:17.854Z,1832
2017-06-02T04:56:18.809Z,1736
2017-06-02T04:57:19.512Z,1852
2017-06-02T04:58:20.213Z,1888
2017-06-02T04:59:20.914Z,1916
2017-06-02T05:00:21.618Z,1928
2017-06-02T05:01:22.572Z,1852
2017-06-02T05:02:23.280Z,1804
2017-06-02T05:03:23.984Z,2000
2017-06-02T05:04:24.687Z,2004
2017-06-02T05:05:25.390Z,2008
2017-06-02T05:06:26.340Z,2024
2017-06-02T05:07:27.044Z,2024
2017-06-02T05:08:27.749Z,2044
2017-06-02T05:09:28.452Z,2040
2017-06-02T05:10:29.158Z,2052
2017-06-02T05:11:30.065Z,2056
2017-06-02T05:12:30.765Z,2072
2017-06-02T05:13:31.472Z,2084
2017-06-02T05:14:32.175Z,2096
2017-06-02T05:15:32.884Z,2124
2017-06-02T05:16:33.839Z,2136
2017-06-02T05:17:34.544Z,2140
2017-06-02T05:18:35.251Z,2152
2017-06-02T05:19:35.955Z,2160
2017-06-02T05:20:36.667Z,2176
2017-06-02T05:21:37.575Z,2188
2017-06-02T05:22:38.281Z,2208
2017-06-02T05:23:38.983Z,2220
2017-06-02T05:24:39.688Z,2228
2017-06-02T05:25:40.392Z,2240
2017-06-02T05:26:41.302Z,2256
2017-06-02T05:27:42.009Z,2256
2017-06-02T05:28:42.711Z,2260
2017-06-02T05:29:43.416Z,2260
2017-06-02T05:30:44.121Z,2268
2017-06-02T05:31:45.074Z,2276
2017-06-02T05:32:45.778Z,2284
2017-06-02T05:33:46.481Z,2292
2017-06-02T05:34:47.190Z,2308
2017-06-02T05:35:47.892Z,2320
2017-06-02T05:36:48.798Z,2336
2017-06-02T05:37:49.502Z,980
2017-06-02T05:38:50.213Z,1052
2017-06-02T05:39:50.924Z,2360
2017-06-02T05:40:51.630Z,2372
2017-06-02T05:41:52.533Z,2372
2017-06-02T05:42:53.239Z,2380
2017-06-02T05:43:53.945Z,2388
2017-06-02T05:44:54.650Z,2392
2017-06-02T05:45:55.353Z,2404
2017-06-02T05:46:56.266Z,2408
2017-06-02T05:47:56.976Z,2420
2017-06-02T05:48:57.684Z,2424
2017-06-02T05:49:58.385Z,2428
2017-06-02T05:50:59.087Z,2436
2017-06-02T05:52:00.041Z,2440
2017-06-02T05:53:00.744Z,2444
2017-06-02T05:54:01.453Z,2456
2017-06-02T05:55:02.160Z,2460
2017-06-02T05:56:02.869Z,2476
2017-06-02T05:57:03.833Z,2484
2017-06-02T05:58:04.541Z,2492
2017-06-02T05:59:05.244Z,2500
2017-06-02T06:00:05.950Z,2508
2017-06-02T06:01:06.657Z,2516
2017-06-02T06:02:07.563Z,2520
2017-06-02T06:03:08.270Z,2544
2017-06-02T06:04:08.978Z,2552
2017-06-02T06:05:09.683Z,2556
2017-06-02T06:06:10.388Z,2564
2017-06-02T06:07:11.351Z,2572
2017-06-02T06:08:12.058Z,2576
2017-06-02T06:09:12.762Z,2584
2017-06-02T06:10:13.466Z,2592
2017-06-02T06:11:14.170Z,2596
2017-06-02T06:12:15.126Z,2604
2017-06-02T06:13:15.832Z,2604
2017-06-02T06:14:16.542Z,2612
2017-06-02T06:15:17.245Z,2616
2017-06-02T06:16:17.950Z,2620
2017-06-02T06:17:18.906Z,2628
2017-06-02T06:18:19.620Z,2636
2017-06-02T06:19:20.329Z,2640
2017-06-02T06:20:21.043Z,2648
2017-06-02T06:21:21.747Z,2652
2017-06-02T06:22:22.707Z,2656
2017-06-02T06:23:23.418Z,2628
2017-06-02T06:24:24.123Z,2664
2017-06-02T06:25:24.831Z,2668
2017-06-02T06:26:25.538Z,2676
2017-06-02T06:27:26.495Z,2676
2017-06-02T06:28:27.199Z,2684
2017-06-02T06:29:27.907Z,2692
2017-06-02T06:30:28.609Z,2696
2017-06-02T06:31:29.316Z,2704
2017-06-02T06:32:30.275Z,2712
2017-06-02T06:33:30.979Z,2716
2017-06-02T06:34:31.686Z,2728
2017-06-02T06:35:32.390Z,2736
2017-06-02T06:36:33.096Z,2740
2017-06-02T06:37:34.054Z,2744
2017-06-02T06:38:34.759Z,2748
2017-06-02T06:39:35.465Z,2752
2017-06-02T06:40:36.172Z,2752
2017-06-02T06:41:36.874Z,2760
2017-06-02T06:42:37.834Z,2768
2017-06-02T06:43:38.539Z,2776
2017-06-02T06:44:39.247Z,2776
2017-06-02T06:45:39.950Z,2784
2017-06-02T06:46:40.654Z,2788
2017-06-02T06:47:41.562Z,2788
2017-06-02T06:48:42.267Z,2796
2017-06-02T06:49:42.970Z,2800
2017-06-02T06:50:43.677Z,2804
2017-06-02T06:51:44.391Z,2812
2017-06-02T06:52:45.350Z,2820
2017-06-02T06:53:46.065Z,2820
2017-06-02T06:54:46.777Z,2824
2017-06-02T06:55:47.481Z,2832
2017-06-02T06:56:48.189Z,2836
2017-06-02T06:57:49.096Z,2840
2017-06-02T06:58:49.804Z,2840
2017-06-02T06:59:50.473Z,2844
2017-06-02T07:00:51.222Z,2848
2017-06-02T07:01:51.937Z,2852
2017-06-02T07:02:52.644Z,2856
2017-06-02T07:03:53.351Z,2860
2017-06-02T07:04:54.055Z,2860
2017-06-02T07:05:54.763Z,2868
2017-06-02T07:06:55.471Z,2868
2017-06-02T07:07:56.432Z,2872
2017-06-02T07:08:57.140Z,2876
2017-06-02T07:09:57.845Z,2880
2017-06-02T07:10:58.552Z,2888
2017-06-02T07:11:59.260Z,2888
2017-06-02T07:13:00.180Z,2896
2017-06-02T07:14:00.888Z,2904
2017-06-02T07:15:01.591Z,2912
2017-06-02T07:16:02.296Z,2916
2017-06-02T07:17:03.005Z,2916
2017-06-02T07:18:03.973Z,2924
2017-06-02T07:19:04.681Z,2924
2017-06-02T07:20:05.391Z,2928
2017-06-02T07:21:06.097Z,2932
2017-06-02T07:22:06.807Z,2940
2017-06-02T07:23:07.716Z,2944
2017-06-02T07:24:08.422Z,2952
2017-06-02T07:25:09.130Z,2952
2017-06-02T07:26:09.837Z,2956
2017-06-02T07:27:10.544Z,2960
2017-06-02T07:28:11.505Z,2972
2017-06-02T07:29:12.217Z,2976
2017-06-02T07:30:12.923Z,2984
2017-06-02T07:31:13.630Z,2992
2017-06-02T07:32:14.335Z,3000
2017-06-02T07:33:15.293Z,3008
2017-06-02T07:34:16.000Z,3012
2017-06-02T07:35:16.711Z,3020
2017-06-02T07:36:17.424Z,3024
2017-06-02T07:37:18.134Z,3036
2017-06-02T07:38:19.101Z,3040
2017-06-02T07:39:19.817Z,3048
2017-06-02T07:40:20.528Z,3056
2017-06-02T07:41:21.301Z,3060
2017-06-02T07:42:22.014Z,3068
2017-06-02T07:43:22.830Z,3076
2017-06-02T07:44:23.625Z,3080
2017-06-02T07:45:24.336Z,3084
2017-06-02T07:46:25.045Z,3096
2017-06-02T07:47:25.754Z,3100
2017-06-02T07:48:26.661Z,3104
2017-06-02T07:49:27.369Z,3112
2017-06-02T07:50:28.079Z,3116
2017-06-02T07:51:28.786Z,3128
2017-06-02T07:52:29.496Z,3140
2017-06-02T07:53:30.457Z,3148
2017-06-02T07:54:31.166Z,3160
2017-06-02T07:55:31.878Z,3172
2017-06-02T07:56:32.586Z,3176
2017-06-02T07:57:33.294Z,3184
2017-06-02T07:58:34.261Z,3200
2017-06-02T07:59:34.974Z,3216
2017-06-02T08:00:35.682Z,3224
2017-06-02T08:01:36.390Z,3236
2017-06-02T08:02:37.102Z,3248
2017-06-02T08:03:37.811Z,3264
2017-06-02T08:04:38.522Z,3276
2017-06-02T08:05:39.242Z,3288
2017-06-02T08:06:39.946Z,3304
2017-06-02T08:07:40.655Z,3316
2017-06-02T08:08:41.564Z,3328
2017-06-02T08:09:42.273Z,3344
2017-06-02T08:10:42.984Z,3356
2017-06-02T08:11:43.703Z,3376
2017-06-02T08:12:44.409Z,3400
2017-06-02T08:13:45.367Z,3416
2017-06-02T08:14:46.075Z,3432
2017-06-02T08:15:46.784Z,3444
2017-06-02T08:16:47.492Z,3452
2017-06-02T08:17:48.207Z,3460
2017-06-02T08:18:49.166Z,3452
2017-06-02T08:19:49.880Z,3464
2017-06-02T08:20:50.594Z,3480
2017-06-02T08:21:51.302Z,3492
2017-06-02T08:22:52.009Z,3508
2017-06-02T08:23:52.966Z,3520
2017-06-02T08:24:53.678Z,3540
2017-06-02T08:25:54.385Z,3548
2017-06-02T08:26:55.098Z,3556
2017-06-02T08:27:55.806Z,3572
2017-06-02T08:28:56.765Z,3580
2017-06-02T08:29:57.475Z,3588
2017-06-02T08:30:58.185Z,3608
2017-06-02T08:31:58.897Z,3604
2017-06-02T08:32:59.636Z,3608
2017-06-02T08:34:00.597Z,3616
2017-06-02T08:35:01.312Z,3624
2017-06-02T08:36:02.026Z,3624
2017-06-02T08:37:02.749Z,3624
2017-06-02T08:38:03.465Z,3636
2017-06-02T08:39:04.373Z,3640
2017-06-02T08:40:05.089Z,3644
2017-06-02T08:41:05.797Z,3656
2017-06-02T08:42:06.504Z,3668
2017-06-02T08:43:07.227Z,3676
2017-06-02T08:44:08.146Z,3684
2017-06-02T08:45:08.854Z,3688
2017-06-02T08:46:09.566Z,3696
2017-06-02T08:47:10.273Z,3712
2017-06-02T08:48:10.982Z,3736
2017-06-02T08:49:11.942Z,3760
2017-06-02T08:50:12.650Z,3780
2017-06-02T08:51:13.359Z,3800
2017-06-02T08:52:14.078Z,3812
2017-06-02T08:53:14.789Z,3820
2017-06-02T08:54:15.752Z,3844
2017-06-02T08:55:16.457Z,3864
2017-06-02T08:56:17.166Z,3880
2017-06-02T08:57:17.877Z,3884
2017-06-02T08:58:18.587Z,3900
2017-06-02T08:59:19.544Z,3932
2017-06-02T09:00:20.258Z,3956
2017-06-02T09:01:20.962Z,3976
2017-06-02T09:02:21.668Z,3992
2017-06-02T09:03:22.379Z,4016
2017-06-02T09:04:23.334Z,4024
2017-06-02T09:05:24.045Z,4036
2017-06-02T09:06:24.750Z,4052
2017-06-02T09:07:25.458Z,4076
2017-06-02T09:08:26.168Z,4092
2017-06-02T09:09:27.129Z,4104
2017-06-02T09:10:27.841Z,4116
2017-06-02T09:11:28.561Z,4116
2017-06-02T09:12:29.270Z,4116
2017-06-02T09:13:29.978Z,4112
2017-06-02T09:14:30.688Z,4120
2017-06-02T09:15:31.399Z,4148
2017-06-02T09:16:32.114Z,4168
2017-06-02T09:17:32.825Z,4180
2017-06-02T09:18:33.534Z,4192
2017-06-02T09:19:34.497Z,4200
2017-06-02T09:20:35.210Z,4220
2017-06-02T09:21:35.920Z,4228
2017-06-02T09:22:36.633Z,4232
2017-06-02T09:23:37.345Z,4252
2017-06-02T09:24:38.317Z,4280
2017-06-02T09:25:39.028Z,4296
2017-06-02T09:26:39.741Z,4328
2017-06-02T09:27:40.451Z,4360
2017-06-02T09:28:41.157Z,4392
2017-06-02T09:29:42.115Z,4424
2017-06-02T09:30:42.823Z,4444
2017-06-02T09:31:43.530Z,4444
2017-06-02T09:32:44.235Z,4460
2017-06-02T09:33:44.959Z,4460
2017-06-02T09:34:45.918Z,4468
2017-06-02T09:35:46.647Z,4480
2017-06-02T09:36:47.360Z,4484
2017-06-02T09:37:48.078Z,4516
2017-06-02T09:38:48.794Z,4532
2017-06-02T09:39:49.766Z,4544
2017-06-02T09:40:50.479Z,4552
2017-06-02T09:41:51.187Z,4560
2017-06-02T09:42:51.901Z,4608
2017-06-02T09:43:52.612Z,4648
2017-06-02T09:44:53.343Z,4672
2017-06-02T09:45:54.055Z,4712
2017-06-02T09:46:54.767Z,4748
2017-06-02T09:47:55.486Z,4772
2017-06-02T09:48:56.202Z,4800
2017-06-02T09:49:57.163Z,4824
2017-06-02T09:50:57.870Z,4876
2017-06-02T09:51:58.588Z,4908
2017-06-02T09:52:59.312Z,4948
2017-06-02T09:54:00.020Z,4992
2017-06-02T09:55:00.932Z,5044
2017-06-02T09:56:01.643Z,5052
2017-06-02T09:57:02.360Z,5076
2017-06-02T09:58:03.084Z,5088
2017-06-02T09:59:03.801Z,5112
2017-06-02T10:00:04.711Z,5148
2017-06-02T10:01:05.425Z,5172
2017-06-02T10:02:06.146Z,5168
2017-06-02T10:03:06.856Z,5156
2017-06-02T10:04:07.573Z,5160
2017-06-02T10:05:08.534Z,5196
2017-06-02T10:06:09.248Z,5212
2017-06-02T10:07:09.963Z,5252
2017-06-02T10:08:10.675Z,5292
2017-06-02T10:09:11.395Z,5340
2017-06-02T10:10:12.355Z,5400
2017-06-02T10:11:13.062Z,5460
2017-06-02T10:12:13.783Z,5488
2017-06-02T10:13:14.490Z,5524
2017-06-02T10:14:15.200Z,5660
2017-06-02T10:15:16.158Z,5744
2017-06-02T10:16:16.869Z,5728
2017-06-02T10:17:17.584Z,5676
2017-06-02T10:18:18.296Z,5644
2017-06-02T10:19:19.006Z,5592
2017-06-02T10:20:19.972Z,5528
2017-06-02T10:21:20.690Z,5512
2017-06-02T10:22:21.403Z,5604
2017-06-02T10:23:22.113Z,5688
2017-06-02T10:24:22.826Z,5756
2017-06-02T10:25:23.786Z,5736
2017-06-02T10:26:24.493Z,5844
2017-06-02T10:27:25.205Z,6000
2017-06-02T10:28:25.914Z,6132
2017-06-02T10:29:26.643Z,6088
2017-06-02T10:30:27.601Z,6060
2017-06-02T10:31:28.315Z,6104
2017-06-02T10:32:29.021Z,6200
2017-06-02T10:33:29.740Z,6152
2017-06-02T10:34:30.459Z,6176
2017-06-02T10:35:31.419Z,6448
2017-06-02T10:36:32.127Z,6600
2017-06-02T10:37:32.839Z,6560
2017-06-02T10:38:33.553Z,6532
2017-06-02T10:39:34.270Z,6552
2017-06-02T10:40:35.235Z,6580
2017-06-02T10:41:35.948Z,6628
2017-06-02T10:42:36.662Z,6708
2017-06-02T10:43:37.380Z,6744
2017-06-02T10:44:38.093Z,6896
2017-06-02T10:45:39.063Z,6972
2017-06-02T10:46:39.782Z,6972
2017-06-02T10:47:40.490Z,6908
2017-06-02T10:48:41.200Z,6780
2017-06-02T10:49:41.911Z,6728
2017-06-02T10:50:42.874Z,6608
2017-06-02T10:51:43.586Z,6376
2017-06-02T10:52:44.297Z,6312
2017-06-02T10:53:45.010Z,6316
2017-06-02T10:54:45.720Z,6408
2017-06-02T10:55:46.632Z,6484
2017-06-02T10:56:47.345Z,6488
2017-06-02T10:57:48.057Z,6476
2017-06-02T10:58:48.769Z,6516
2017-06-02T10:59:49.479Z,6584
2017-06-02T11:00:50.393Z,6584
2017-06-02T11:01:51.103Z,6548
2017-06-02T11:02:51.809Z,6580
2017-06-02T11:03:52.520Z,6644
2017-06-02T11:04:53.241Z,6740
2017-06-02T11:05:54.159Z,6864
2017-06-02T11:06:54.871Z,6920
2017-06-02T11:07:55.590Z,6928
2017-06-02T11:08:56.305Z,6840
2017-06-02T11:09:57.029Z,6808
2017-06-02T11:10:57.994Z,6800
2017-06-02T11:11:58.722Z,6824
2017-06-02T11:12:59.435Z,6904
2017-06-02T11:14:00.147Z,7004
2017-06-02T11:15:00.863Z,7108
2017-06-02T11:16:01.774Z,7256
2017-06-02T11:17:02.484Z,7412
2017-06-02T11:18:03.195Z,7476
2017-06-02T11:19:03.905Z,7616
2017-06-02T11:20:04.617Z,8152
2017-06-02T11:21:05.529Z,8564
2017-06-02T11:22:06.248Z,8820
2017-06-02T11:23:06.958Z,9016
2017-06-02T11:24:07.679Z,9428
2017-06-02T11:25:08.390Z,10008
2017-06-02T11:26:09.303Z,9808
2017-06-02T11:27:10.019Z,8444
2017-06-02T11:28:10.734Z,9872
2017-06-02T11:29:11.447Z,10296
2017-06-02T11:30:12.158Z,10448
2017-06-02T11:31:12.870Z,10904
2017-06-02T11:32:13.584Z,10820
2017-06-02T11:33:14.305Z,10756
2017-06-02T11:34:15.015Z,9780
2017-06-02T11:35:15.742Z,9748
2017-06-02T11:36:16.701Z,10192
2017-06-02T11:37:17.410Z,10372
2017-06-02T11:38:18.123Z,10744
2017-06-02T11:39:18.835Z,11824
2017-06-02T11:40:19.560Z,14880
2017-06-02T11:41:20.527Z,16800
2017-06-02T11:42:21.239Z,16384
2017-06-02T11:43:21.954Z,14176
2017-06-02T11:44:22.672Z,16448
2017-06-02T11:45:23.387Z,16896
2017-06-02T11:46:24.298Z,16640
2017-06-02T11:47:25.010Z,13512
2017-06-02T11:48:25.724Z,14184
2017-06-02T11:49:26.443Z,17152
2017-06-02T11:50:27.164Z,17760
2017-06-02T11:51:28.078Z,19520
2017-06-02T11:52:28.818Z,24576
2017-06-02T11:53:29.641Z,32768
2017-06-02T11:54:30.360Z,47392
2017-06-02T11:55:31.076Z,14956
2017-06-02T11:56:32.046Z,14268
2017-06-02T11:57:32.763Z,10784
2017-06-02T11:58:33.476Z,9172
2017-06-02T11:59:34.199Z,9292
2017-06-02T12:00:34.924Z,9524
2017-06-02T12:01:35.839Z,9788
2017-06-02T12:02:36.561Z,10244
2017-06-02T12:03:37.277Z,10308
2017-06-02T12:04:37.993Z,9156
2017-06-02T12:05:38.704Z,8604
2017-06-02T12:06:39.670Z,8732
2017-06-02T12:07:40.383Z,8552
2017-06-02T12:08:41.096Z,10312
2017-06-02T12:09:41.808Z,40576
2017-06-02T12:10:42.522Z,31072
2017-06-02T12:11:43.438Z,64320
2017-06-02T12:12:44.157Z,78272
2017-06-02T12:13:44.873Z,75008
2017-06-02T12:14:45.586Z,78048
2017-06-02T12:15:46.310Z,77312
2017-06-02T12:16:47.274Z,77536
2017-06-02T12:17:47.994Z,78208
2017-06-02T12:18:48.714Z,75424
2017-06-02T12:19:49.428Z,74080
2017-06-02T12:20:50.141Z,71744
2017-06-02T12:21:51.060Z,74976
2017-06-02T12:22:51.776Z,77376
2017-06-02T12:23:52.501Z,79616
2017-06-02T12:24:53.227Z,77984
2017-06-02T12:25:53.945Z,74464
2017-06-02T12:26:54.911Z,75488
2017-06-02T12:27:55.632Z,77216
2017-06-02T12:28:56.350Z,81536
2017-06-02T12:29:57.065Z,83872
2017-06-02T12:30:57.783Z,81024
2017-06-02T12:31:58.751Z,82656
2017-06-02T12:32:59.479Z,80928
2017-06-02T12:34:00.194Z,82400
2017-06-02T12:35:00.916Z,80928
2017-06-02T12:36:01.637Z,76800
2017-06-02T12:37:02.609Z,83392
2017-06-02T12:38:03.329Z,83392
2017-06-02T12:39:04.050Z,81888
2017-06-02T12:40:04.770Z,82752
2017-06-02T12:41:05.488Z,76832
2017-06-02T12:42:06.407Z,82624
2017-06-02T12:43:07.135Z,80992
2017-06-02T12:44:07.855Z,80320
2017-06-02T12:45:08.582Z,84832
2017-06-02T12:46:09.300Z,88224
2017-06-02T12:47:10.219Z,79872
2017-06-02T12:48:10.937Z,70976
2017-06-02T12:49:11.651Z,15628
2017-06-02T12:50:12.380Z,11520
2017-06-02T12:51:13.108Z,10196
2017-06-02T12:52:14.027Z,9692
2017-06-02T12:53:14.748Z,9816
2017-06-02T12:54:15.465Z,11580
2017-06-02T12:55:16.180Z,47072
2017-06-02T12:56:16.899Z,71488
2017-06-02T12:57:17.821Z,67264
2017-06-02T12:58:18.537Z,86464
2017-06-02T12:59:19.254Z,85984
2017-06-02T13:00:19.971Z,82112
2017-06-02T13:01:20.694Z,81632
2017-06-02T13:02:21.664Z,88256
2017-06-02T13:03:22.382Z,85056
2017-06-02T13:04:23.098Z,84448
2017-06-02T13:05:23.829Z,84928
2017-06-02T13:06:24.543Z,82816
2017-06-02T13:07:25.511Z,83712
2017-06-02T13:08:26.228Z,82144
2017-06-02T13:09:26.947Z,84640
2017-06-02T13:10:27.664Z,84160
2017-06-02T13:11:28.382Z,87872
2017-06-02T13:12:29.352Z,88576
2017-06-02T13:13:30.084Z,82784
2017-06-02T13:14:30.807Z,75776
2017-06-02T13:15:31.528Z,80896
2017-06-02T13:16:32.247Z,84384
2017-06-02T13:17:32.964Z,93760
2017-06-02T13:18:33.683Z,90080
2017-06-02T13:19:34.405Z,87552
2017-06-02T13:20:35.122Z,88416
2017-06-02T13:21:35.841Z,81088
2017-06-02T13:22:36.761Z,20320
2017-06-02T13:23:37.482Z,81792
2017-06-02T13:24:38.204Z,84224
2017-06-02T13:25:38.926Z,79968
2017-06-02T13:26:39.647Z,90688
2017-06-02T13:27:40.617Z,79040
2017-06-02T13:28:41.341Z,83872
2017-06-02T13:29:42.070Z,70208
2017-06-02T13:30:42.787Z,19616
2017-06-02T13:31:43.507Z,14684
2017-06-02T13:32:44.435Z,13908
2017-06-02T13:33:45.152Z,13796
2017-06-02T13:34:45.871Z,37504
2017-06-02T13:35:46.588Z,38336
2017-06-02T13:36:47.305Z,11940
2017-06-02T13:37:48.224Z,11728
2017-06-02T13:38:48.945Z,11864
2017-06-02T13:39:49.665Z,11088
2017-06-02T13:40:50.395Z,10908
2017-06-02T13:41:51.113Z,21760
2017-06-02T13:42:52.030Z,95296
2017-06-02T13:43:52.747Z,100480
2017-06-02T13:44:53.464Z,98848